Pagina principale
METAR-TAF:

METAR-TAF

Aeroporti :

Hamadan, Iran

latitudine: 34-52-05N, longitudine: 048-33-08E, altezza: 1757 m

Osservazione

Il bollettino è stato emesso 23 minuti fa, alle 04:00 UTC
Vento 8 kt da ovest
Temperature 5°C
Umidità 60%
Pressione 1010 hPa
Visibilità 10 km o più
Poco nuvoloso ad un'altezza di 4000 ft

METAR: OIHH 300400Z 28008KT 9999 FEW040 05/M02 Q1010

Ora: 08:53 (04:23 UTC)


TAF: mancante

Osservazioni e previsioni meteorologiche di più di 4000 aeroporti (messaggi METAR e TAF).

Le stazioni disponibili sono rappresentate dai dischi gialli e rossi sulla carta.

Puntare il mouse per vedere il nome della stazione.

Clicca sopra per visualizzare le osservazioni e previsioni meteorologiche.

Per cambiare la mappa : fare clic sui pulsanti verdi con una croce nera per ingrandire, il pulsante verde con un trattino per diminuire, o sulla freccia verde per le mappe adiacenti.


METAR-TAF: